Danville, IN

6:42 AM EDT on May 24, 2018 (GMT -0400)
Vermilion County

Weather History for KDNV - November, 2012

Change the Weather History Date:

Wednesday, November 14, 2012

  Actual Average (KLAF) Record (KLAF)
Temperature  
Mean Temperature 35 °F -  
Max Temperature 43 °F 49 °F 75 °F (1971)
Min Temperature 27 °F 31 °F 9 °F (1986)
Degree Days  
Heating Degree Days 30    
Moisture  
Dew Point 27 °F    
Average Humidity 76    
Maximum Humidity 94    
Minimum Humidity 54    
Precipitation  
Precipitation 0.00 in - - ()
Sea Level Pressure  
Sea Level Pressure 30.44 in    
Wind  
Wind Speed 3 mph (East)    
Max Wind Speed 9 mph    
Max Gust Speed -    
Visibility 9 miles    
Events      
Averages and records for this station are not official NWS values.
T = Trace of Precipitation, MM = Missing Value Source: NWS Daily Summary

Daily Weather History Graph

Daily Weather History Graph

Search for Another Location

Airport or City:

Astronomy

Nov. 14, 2012 Rise Set
Actual Time 6:35 AM CST 4:33 PM CST
Civil Twilight 6:06 AM CST 5:03 PM CST
Nautical Twilight 5:33 AM CST 5:35 PM CST
Astronomical Twilight 5:01 AM CST 6:07 PM CST
Moon 7:24 AM CST (11/14) 5:22 PM CST (11/14)
Length of Visible Light 10h 56m
Length of Day
9h 58m
New Moon, 1% of the Moon is Illuminated
Nov 14
New Moon
Nov 20
First Quarter
Nov 28
Full
Dec 6
Last Quarter
Dec 13
New

Hourly Weather History & Observations

Time (CST) Temp. Windchill Dew Point Humidity Pressure Visibility Wind Dir Wind Speed Gust Speed Precip Events Conditions
12:15 AM 29.8 °F 26.3 °F 25.7 °F 85% 30.48 in 10.0 mi East 3.5 mph - N/A   Clear
12:35 AM 30.7 °F 27.3 °F 25.7 °F 82% 30.48 in 7.0 mi East 3.5 mph - N/A   Clear
12:55 AM 30.2 °F - 26.2 °F 85% 30.48 in 10.0 mi Calm Calm - N/A   Clear
1:15 AM 30.6 °F 27.1 °F 26.2 °F 84% 30.48 in 10.0 mi East 3.5 mph - N/A   Clear
1:35 AM 31.1 °F 27.7 °F 25.5 °F 80% 30.48 in 10.0 mi East 3.5 mph - N/A   Clear
1:55 AM 31.1 °F - 25.2 °F 79% 30.48 in 10.0 mi Calm Calm - N/A   Clear
2:15 AM 31.1 °F 27.7 °F 25.3 °F 79% 30.48 in 10.0 mi East 3.5 mph - N/A   Clear
2:35 AM 31.1 °F 27.7 °F 25.2 °F 79% 30.48 in 10.0 mi East 3.5 mph - N/A   Clear
2:55 AM 30.6 °F - 25.3 °F 81% 30.48 in 10.0 mi Calm Calm - N/A   Clear
3:15 AM 30.7 °F - 24.8 °F 79% 30.48 in 7.0 mi Calm Calm - N/A   Clear
3:35 AM 28.9 °F - 23.9 °F 81% 30.48 in 10.0 mi Calm Calm - N/A   Clear
3:55 AM 29.1 °F - 24.4 °F 83% 30.48 in 10.0 mi Calm Calm - N/A   Clear
4:15 AM 28.9 °F - 25.2 °F 86% 30.48 in 10.0 mi Calm Calm - N/A   Clear
4:35 AM 28.8 °F - 24.8 °F 85% 30.48 in 10.0 mi Calm Calm - N/A   Clear
4:55 AM 28.2 °F - 25.2 °F 88% 30.49 in 10.0 mi Calm Calm - N/A   Clear
5:15 AM 28.2 °F - 25.7 °F 90% 30.49 in 10.0 mi Calm Calm - N/A   Unknown
5:35 AM 28.2 °F 24.4 °F 25.0 °F 88% 30.48 in 10.0 mi East 3.5 mph - N/A   Unknown
5:55 AM 27.5 °F 23.6 °F 24.8 °F 90% 30.48 in 10.0 mi East 3.5 mph - N/A   Unknown
6:15 AM 27.5 °F 23.6 °F 25.3 °F 92% 30.48 in 10.0 mi East 3.5 mph - N/A   Unknown
6:35 AM 28.8 °F 25.0 °F 24.8 °F 85% 30.48 in 7.0 mi East 3.5 mph - N/A   Unknown
6:55 AM 29.3 °F 25.6 °F 24.8 °F 83% 30.48 in 7.0 mi East 3.5 mph - N/A   Unknown
7:15 AM 30.0 °F - 24.8 °F 81% 30.49 in 7.0 mi Calm Calm - N/A   Unknown
7:35 AM 30.6 °F - 25.7 °F 82% 30.50 in 10.0 mi Calm Calm - N/A   Clear
7:55 AM 31.1 °F - 26.2 °F 82% 30.51 in 10.0 mi Calm Calm - N/A   Unknown
8:15 AM 31.5 °F - 26.1 °F 80% 30.51 in 10.0 mi Calm Calm - N/A   Unknown
8:35 AM 32.0 °F 28.7 °F 27.1 °F 82% 30.51 in 7.0 mi East 3.5 mph - N/A   Clear
8:55 AM 32.7 °F 27.3 °F 27.9 °F 82% 30.50 in 10.0 mi East 5.8 mph - N/A   Clear
9:15 AM 34.5 °F 31.6 °F 28.6 °F 79% 30.51 in 7.0 mi East 3.5 mph - N/A   Clear
9:35 AM 35.8 °F 30.9 °F 27.5 °F 72% 30.51 in 5.0 mi ESE 5.8 mph - N/A   Haze
9:55 AM 36.9 °F 33.1 °F 27.9 °F 70% 30.51 in 1.2 mi SE 4.6 mph - N/A   Haze
10:15 AM 37.4 °F 32.1 °F 28.6 °F 70% 30.50 in 7.0 mi SE 6.9 mph - N/A   Clear
10:35 AM 38.3 °F 33.2 °F 28.0 °F 67% 30.49 in 10.0 mi SSE 6.9 mph - N/A   Clear
10:55 AM 39.0 °F 32.8 °F 28.0 °F 65% 30.48 in 10.0 mi SSE 9.2 mph - N/A   Clear
11:15 AM 39.2 °F 33.6 °F 28.9 °F 67% 30.47 in 10.0 mi SE 8.1 mph - N/A   Clear
11:35 AM 40.1 °F 34.1 °F 28.2 °F 63% 30.46 in 10.0 mi ESE 9.2 mph - N/A   Clear
11:55 AM 41.0 °F 35.2 °F 27.3 °F 58% 30.45 in 10.0 mi ESE 9.2 mph - N/A   Clear
12:15 PM 40.6 °F 36.7 °F 29.1 °F 64% 30.44 in 10.0 mi SE 5.8 mph - N/A   Clear
12:35 PM 40.8 °F 36.9 °F 28.0 °F 60% 30.44 in 10.0 mi ESE 5.8 mph - N/A   Unknown
12:55 PM 41.4 °F 39.4 °F 27.5 °F 58% 30.43 in 10.0 mi SE 3.5 mph - N/A   Unknown
1:15 PM 41.9 °F 40.0 °F 28.0 °F 58% 30.43 in 10.0 mi ESE 3.5 mph - N/A   Unknown
1:35 PM 42.8 °F 41.1 °F 28.2 °F 56% 30.42 in 10.0 mi SSE 3.5 mph - N/A   Clear
1:55 PM 43.0 °F 41.3 °F 27.7 °F 55% 30.41 in 10.0 mi East 3.5 mph - N/A   Clear
2:15 PM 42.8 °F - 27.3 °F 54% 30.41 in 10.0 mi Calm Calm - N/A   Clear
2:35 PM 42.4 °F 40.7 °F 27.9 °F 56% 30.40 in 10.0 mi East 3.5 mph - N/A   Clear
2:55 PM 43.0 °F - 27.9 °F 55% 30.40 in 10.0 mi Calm Calm - N/A   Unknown
3:15 PM 42.8 °F 41.1 °F 28.2 °F 56% 30.40 in 10.0 mi East 3.5 mph - N/A   Unknown
3:35 PM 43.0 °F 40.3 °F 28.8 °F 57% 30.40 in 10.0 mi ENE 4.6 mph - N/A   Clear
3:55 PM 42.8 °F 39.3 °F 28.6 °F 57% 30.39 in 10.0 mi East 5.8 mph - N/A   Clear
4:15 PM 42.1 °F 38.4 °F 28.9 °F 60% 30.39 in 10.0 mi East 5.8 mph - N/A   Clear
4:35 PM 40.8 °F 36.9 °F 29.3 °F 64% 30.38 in 10.0 mi ESE 5.8 mph - N/A   Clear
4:55 PM 38.8 °F 35.4 °F 29.8 °F 70% 30.38 in 10.0 mi East 4.6 mph - N/A   Clear
5:15 PM 38.3 °F 35.9 °F 28.9 °F 69% 30.38 in 10.0 mi East 3.5 mph - N/A   Clear
5:35 PM 37.4 °F - 28.2 °F 69% 30.38 in 10.0 mi Calm Calm - N/A   Clear
5:55 PM 37.4 °F - 28.0 °F 69% 30.38 in 10.0 mi Calm Calm - N/A   Clear
6:15 PM 35.2 °F - 27.5 °F 73% 30.38 in 10.0 mi Calm Calm - N/A   Clear
6:35 PM 35.6 °F - 27.5 °F 72% 30.38 in 10.0 mi Calm Calm - N/A   Clear
6:55 PM 33.1 °F 30.0 °F 27.5 °F 80% 30.38 in 10.0 mi ENE 3.5 mph - N/A   Clear
7:15 PM 32.0 °F 28.7 °F 28.0 °F 85% 30.38 in 10.0 mi ENE 3.5 mph - N/A   Clear
7:35 PM 32.7 °F - 27.9 °F 82% 30.38 in 10.0 mi Calm Calm - N/A   Clear
7:55 PM 32.4 °F 29.1 °F 27.5 °F 82% 30.38 in 10.0 mi NE 3.5 mph - N/A   Clear
8:35 PM 30.9 °F 25.2 °F 28.0 °F 89% 30.38 in 10.0 mi ENE 5.8 mph - N/A   Clear
8:55 PM 32.0 °F 28.7 °F 28.2 °F 86% 30.38 in 10.0 mi ENE 3.5 mph - N/A   Clear
9:15 PM 30.9 °F 27.5 °F 27.3 °F 86% 30.38 in 10.0 mi NE 3.5 mph - N/A   Clear
9:35 PM 32.2 °F 27.7 °F 28.6 °F 87% 30.37 in 10.0 mi ENE 4.6 mph - N/A   Clear
9:55 PM 29.7 °F 26.1 °F 26.6 °F 88% 30.37 in 7.0 mi ENE 3.5 mph - N/A   Clear
10:15 PM 29.1 °F - 26.8 °F 91% 30.37 in 7.0 mi Calm Calm - N/A   Clear
10:35 PM 28.9 °F 25.2 °F 27.3 °F 94% 30.36 in 7.0 mi East 3.5 mph - N/A   Clear
10:55 PM 28.4 °F 24.6 °F 27.0 °F 94% 30.36 in 5.0 mi ENE 3.5 mph - N/A   Clear
11:15 PM 27.9 °F - 26.4 °F 94% 30.36 in 7.0 mi Calm Calm - N/A   Clear
11:35 PM 28.6 °F - 27.0 °F 94% 30.36 in 7.0 mi Calm Calm - N/A   Clear
11:55 PM 28.6 °F - 26.8 °F 93% 30.35 in 7.0 mi Calm Calm - N/A   Clear